sensor_id;sensor_type;location;lat;lon;timestamp;P1;durP1;ratioP1;P2;durP2;ratioP2
45792;SDS011;31495;42.740;22.908;2022-12-29T00:00:31;61.85;;;29.52;;
45792;SDS011;31495;42.740;22.908;2022-12-29T00:01:31;59.25;;;29.98;;
45792;SDS011;31495;42.740;22.908;2022-12-29T00:02:31;64.45;;;32.65;;
45792;SDS011;31495;42.740;22.908;2022-12-29T00:03:30;59.92;;;30.02;;
45792;SDS011;31495;42.740;22.908;2022-12-29T00:04:30;64.07;;;31.08;;
45792;SDS011;31495;42.740;22.908;2022-12-29T00:05:30;66.22;;;29.55;;
45792;SDS011;31495;42.740;22.908;2022-12-29T00:06:29;52.83;;;27.50;;
45792;SDS011;31495;42.740;22.908;2022-12-29T00:07:29;62.60;;;30.05;;
45792;SDS011;31495;42.740;22.908;2022-12-29T00:08:29;58.63;;;28.52;;
45792;SDS011;31495;42.740;22.908;2022-12-29T00:09:40;62.28;;;28.25;;
45792;SDS011;31495;42.740;22.908;2022-12-29T00:10:40;58.60;;;29.58;;
45792;SDS011;31495;42.740;22.908;2022-12-29T00:11:39;56.42;;;28.73;;
45792;SDS011;31495;42.740;22.908;2022-12-29T00:12:39;51.55;;;29.10;;
45792;SDS011;31495;42.740;22.908;2022-12-29T00:13:57;48.17;;;26.55;;
45792;SDS011;31495;42.740;22.908;2022-12-29T00:15:15;50.95;;;27.60;;
45792;SDS011;31495;42.740;22.908;2022-12-29T00:16:34;51.40;;;25.30;;
45792;SDS011;31495;42.740;22.908;2022-12-29T00:17:34;55.42;;;26.73;;
45792;SDS011;31495;42.740;22.908;2022-12-29T00:18:34;56.63;;;28.77;;
45792;SDS011;31495;42.740;22.908;2022-12-29T00:19:33;55.15;;;27.25;;
45792;SDS011;31495;42.740;22.908;2022-12-29T00:20:52;53.35;;;27.65;;
45792;SDS011;31495;42.740;22.908;2022-12-29T00:22:13;50.83;;;25.85;;
45792;SDS011;31495;42.740;22.908;2022-12-29T00:23:32;55.92;;;25.95;;
45792;SDS011;31495;42.740;22.908;2022-12-29T00:24:50;45.38;;;24.73;;
45792;SDS011;31495;42.740;22.908;2022-12-29T00:26:15;44.58;;;24.50;;
45792;SDS011;31495;42.740;22.908;2022-12-29T00:27:34;45.05;;;22.55;;
45792;SDS011;31495;42.740;22.908;2022-12-29T00:28:53;48.75;;;24.33;;
45792;SDS011;31495;42.740;22.908;2022-12-29T00:30:12;47.85;;;26.33;;
45792;SDS011;31495;42.740;22.908;2022-12-29T00:31:32;40.42;;;21.10;;
45792;SDS011;31495;42.740;22.908;2022-12-29T00:32:51;37.13;;;20.60;;
45792;SDS011;31495;42.740;22.908;2022-12-29T00:34:10;33.45;;;19.15;;
45792;SDS011;31495;42.740;22.908;2022-12-29T00:35:30;33.70;;;18.77;;
45792;SDS011;31495;42.740;22.908;2022-12-29T00:36:34;35.83;;;19.63;;
45792;SDS011;31495;42.740;22.908;2022-12-29T00:37:40;36.28;;;19.13;;
45792;SDS011;31495;42.740;22.908;2022-12-29T00:39:02;39.40;;;22.13;;
45792;SDS011;31495;42.740;22.908;2022-12-29T00:40:27;38.33;;;21.67;;
45792;SDS011;31495;42.740;22.908;2022-12-29T00:41:46;38.72;;;23.00;;
45792;SDS011;31495;42.740;22.908;2022-12-29T00:43:05;41.17;;;22.05;;
45792;SDS011;31495;42.740;22.908;2022-12-29T00:44:24;42.88;;;21.05;;
45792;SDS011;31495;42.740;22.908;2022-12-29T00:45:23;35.28;;;19.45;;
45792;SDS011;31495;42.740;22.908;2022-12-29T00:46:23;40.20;;;19.92;;
45792;SDS011;31495;42.740;22.908;2022-12-29T00:47:22;34.88;;;17.60;;
45792;SDS011;31495;42.740;22.908;2022-12-29T00:48:21;30.63;;;16.45;;
45792;SDS011;31495;42.740;22.908;2022-12-29T00:49:40;35.28;;;18.00;;
45792;SDS011;31495;42.740;22.908;2022-12-29T00:50:40;30.83;;;17.20;;
45792;SDS011;31495;42.740;22.908;2022-12-29T00:51:39;30.70;;;18.85;;
45792;SDS011;31495;42.740;22.908;2022-12-29T00:52:39;33.97;;;18.33;;
45792;SDS011;31495;42.740;22.908;2022-12-29T00:53:38;33.65;;;17.75;;
45792;SDS011;31495;42.740;22.908;2022-12-29T00:54:38;33.10;;;16.58;;
45792;SDS011;31495;42.740;22.908;2022-12-29T00:55:39;31.17;;;16.73;;
45792;SDS011;31495;42.740;22.908;2022-12-29T00:56:38;31.92;;;17.38;;
45792;SDS011;31495;42.740;22.908;2022-12-29T00:57:38;36.85;;;18.05;;
45792;SDS011;31495;42.740;22.908;2022-12-29T00:58:37;32.90;;;16.75;;
45792;SDS011;31495;42.740;22.908;2022-12-29T00:59:37;32.25;;;16.80;;
45792;SDS011;31495;42.740;22.908;2022-12-29T01:00:37;31.50;;;18.02;;
45792;SDS011;31495;42.740;22.908;2022-12-29T01:01:37;32.50;;;18.30;;
45792;SDS011;31495;42.740;22.908;2022-12-29T01:02:37;27.33;;;16.50;;
45792;SDS011;31495;42.740;22.908;2022-12-29T01:03:37;76.75;;;55.05;;
45792;SDS011;31495;42.740;22.908;2022-12-29T01:04:37;40.78;;;25.83;;
45792;SDS011;31495;42.740;22.908;2022-12-29T01:05:36;36.78;;;19.05;;
45792;SDS011;31495;42.740;22.908;2022-12-29T01:06:37;29.67;;;18.23;;
45792;SDS011;31495;42.740;22.908;2022-12-29T01:07:38;31.52;;;17.95;;
45792;SDS011;31495;42.740;22.908;2022-12-29T01:08:37;31.30;;;18.05;;
45792;SDS011;31495;42.740;22.908;2022-12-29T01:09:37;34.80;;;18.15;;
45792;SDS011;31495;42.740;22.908;2022-12-29T01:10:59;32.92;;;18.48;;
45792;SDS011;31495;42.740;22.908;2022-12-29T01:12:00;29.13;;;16.85;;
45792;SDS011;31495;42.740;22.908;2022-12-29T01:13:00;36.08;;;21.25;;
45792;SDS011;31495;42.740;22.908;2022-12-29T01:13:59;34.70;;;18.10;;
45792;SDS011;31495;42.740;22.908;2022-12-29T01:14:58;29.95;;;15.45;;
45792;SDS011;31495;42.740;22.908;2022-12-29T01:15:58;33.17;;;16.15;;
45792;SDS011;31495;42.740;22.908;2022-12-29T01:16:58;27.13;;;14.82;;
45792;SDS011;31495;42.740;22.908;2022-12-29T01:17:57;34.50;;;14.98;;
45792;SDS011;31495;42.740;22.908;2022-12-29T01:18:57;32.72;;;16.00;;
45792;SDS011;31495;42.740;22.908;2022-12-29T01:19:57;29.63;;;15.77;;
45792;SDS011;31495;42.740;22.908;2022-12-29T01:21:03;29.50;;;16.60;;
45792;SDS011;31495;42.740;22.908;2022-12-29T01:22:04;29.35;;;16.95;;
45792;SDS011;31495;42.740;22.908;2022-12-29T01:23:03;32.10;;;17.75;;
45792;SDS011;31495;42.740;22.908;2022-12-29T01:24:03;31.50;;;16.75;;
45792;SDS011;31495;42.740;22.908;2022-12-29T01:25:03;29.35;;;16.83;;
45792;SDS011;31495;42.740;22.908;2022-12-29T01:26:10;27.13;;;15.88;;
45792;SDS011;31495;42.740;22.908;2022-12-29T01:27:12;25.45;;;15.88;;
45792;SDS011;31495;42.740;22.908;2022-12-29T01:28:11;27.48;;;15.98;;
45792;SDS011;31495;42.740;22.908;2022-12-29T01:29:11;30.45;;;16.33;;
45792;SDS011;31495;42.740;22.908;2022-12-29T01:30:11;26.30;;;15.02;;
45792;SDS011;31495;42.740;22.908;2022-12-29T01:31:11;31.20;;;17.48;;
45792;SDS011;31495;42.740;22.908;2022-12-29T01:32:12;29.25;;;15.35;;
45792;SDS011;31495;42.740;22.908;2022-12-29T01:33:12;28.80;;;17.48;;
45792;SDS011;31495;42.740;22.908;2022-12-29T01:34:11;31.85;;;17.92;;
45792;SDS011;31495;42.740;22.908;2022-12-29T01:35:12;27.85;;;15.65;;
45792;SDS011;31495;42.740;22.908;2022-12-29T01:36:12;27.90;;;15.63;;
45792;SDS011;31495;42.740;22.908;2022-12-29T01:37:13;28.30;;;15.93;;
45792;SDS011;31495;42.740;22.908;2022-12-29T01:38:13;25.38;;;13.73;;
45792;SDS011;31495;42.740;22.908;2022-12-29T01:39:12;28.70;;;15.48;;
45792;SDS011;31495;42.740;22.908;2022-12-29T01:40:12;27.30;;;15.75;;
45792;SDS011;31495;42.740;22.908;2022-12-29T01:41:13;32.40;;;17.52;;
45792;SDS011;31495;42.740;22.908;2022-12-29T01:42:17;27.05;;;16.20;;
45792;SDS011;31495;42.740;22.908;2022-12-29T01:43:18;29.70;;;16.77;;
45792;SDS011;31495;42.740;22.908;2022-12-29T01:45:55;38.85;;;19.80;;
45792;SDS011;31495;42.740;22.908;2022-12-29T01:46:54;36.75;;;20.15;;
45792;SDS011;31495;42.740;22.908;2022-12-29T01:47:58;36.58;;;18.88;;
45792;SDS011;31495;42.740;22.908;2022-12-29T01:51:41;32.13;;;15.25;;
45792;SDS011;31495;42.740;22.908;2022-12-29T01:52:57;28.02;;;15.10;;
45792;SDS011;31495;42.740;22.908;2022-12-29T01:53:57;28.33;;;14.45;;
45792;SDS011;31495;42.740;22.908;2022-12-29T01:55:01;32.35;;;16.52;;
45792;SDS011;31495;42.740;22.908;2022-12-29T01:57:07;28.58;;;15.65;;
45792;SDS011;31495;42.740;22.908;2022-12-29T01:58:09;30.95;;;15.75;;
45792;SDS011;31495;42.740;22.908;2022-12-29T01:59:13;29.45;;;15.93;;
45792;SDS011;31495;42.740;22.908;2022-12-29T02:00:17;30.48;;;15.75;;
45792;SDS011;31495;42.740;22.908;2022-12-29T02:01:18;30.27;;;15.55;;
45792;SDS011;31495;42.740;22.908;2022-12-29T02:02:19;34.20;;;15.65;;
45792;SDS011;31495;42.740;22.908;2022-12-29T02:03:18;29.60;;;15.18;;
45792;SDS011;31495;42.740;22.908;2022-12-29T02:04:22;28.40;;;15.55;;
45792;SDS011;31495;42.740;22.908;2022-12-29T02:05:33;31.17;;;15.52;;
45792;SDS011;31495;42.740;22.908;2022-12-29T02:06:37;30.75;;;15.70;;
45792;SDS011;31495;42.740;22.908;2022-12-29T02:07:42;32.08;;;16.73;;
45792;SDS011;31495;42.740;22.908;2022-12-29T02:08:42;27.65;;;14.98;;
45792;SDS011;31495;42.740;22.908;2022-12-29T02:09:49;28.75;;;14.20;;
45792;SDS011;31495;42.740;22.908;2022-12-29T02:10:50;28.55;;;14.93;;
45792;SDS011;31495;42.740;22.908;2022-12-29T02:11:50;30.02;;;14.38;;
45792;SDS011;31495;42.740;22.908;2022-12-29T02:12:50;35.22;;;15.88;;
45792;SDS011;31495;42.740;22.908;2022-12-29T02:13:51;30.33;;;16.58;;
45792;SDS011;31495;42.740;22.908;2022-12-29T02:14:53;30.25;;;17.02;;
45792;SDS011;31495;42.740;22.908;2022-12-29T02:17:45;28.83;;;14.15;;
45792;SDS011;31495;42.740;22.908;2022-12-29T02:21:30;29.23;;;14.13;;
45792;SDS011;31495;42.740;22.908;2022-12-29T02:29:09;30.00;;;14.93;;
45792;SDS011;31495;42.740;22.908;2022-12-29T02:32:44;30.45;;;14.95;;
45792;SDS011;31495;42.740;22.908;2022-12-29T02:37:08;30.67;;;16.45;;
45792;SDS011;31495;42.740;22.908;2022-12-29T02:38:36;35.47;;;16.38;;
45792;SDS011;31495;42.740;22.908;2022-12-29T02:41:09;25.48;;;15.52;;
45792;SDS011;31495;42.740;22.908;2022-12-29T02:43:50;25.67;;;15.02;;
45792;SDS011;31495;42.740;22.908;2022-12-29T02:45:07;30.33;;;16.15;;
45792;SDS011;31495;42.740;22.908;2022-12-29T02:47:35;30.80;;;16.15;;
45792;SDS011;31495;42.740;22.908;2022-12-29T02:49:01;31.55;;;17.88;;
45792;SDS011;31495;42.740;22.908;2022-12-29T02:50:15;42.40;;;20.38;;
45792;SDS011;31495;42.740;22.908;2022-12-29T02:51:43;32.30;;;18.02;;
45792;SDS011;31495;42.740;22.908;2022-12-29T02:53:00;32.20;;;17.23;;
45792;SDS011;31495;42.740;22.908;2022-12-29T02:54:03;31.25;;;17.58;;
45792;SDS011;31495;42.740;22.908;2022-12-29T02:55:22;34.05;;;18.88;;
45792;SDS011;31495;42.740;22.908;2022-12-29T02:56:22;34.47;;;18.90;;
45792;SDS011;31495;42.740;22.908;2022-12-29T02:58:22;36.60;;;20.25;;
45792;SDS011;31495;42.740;22.908;2022-12-29T02:59:22;38.75;;;20.02;;
45792;SDS011;31495;42.740;22.908;2022-12-29T03:00:22;33.40;;;20.30;;
45792;SDS011;31495;42.740;22.908;2022-12-29T03:01:24;44.10;;;21.65;;
45792;SDS011;31495;42.740;22.908;2022-12-29T03:05:24;49.95;;;24.23;;
45792;SDS011;31495;42.740;22.908;2022-12-29T03:12:30;45.28;;;21.80;;
45792;SDS011;31495;42.740;22.908;2022-12-29T03:13:52;42.20;;;21.33;;
45792;SDS011;31495;42.740;22.908;2022-12-29T03:15:23;45.20;;;20.60;;
45792;SDS011;31495;42.740;22.908;2022-12-29T03:16:57;37.13;;;18.25;;
45792;SDS011;31495;42.740;22.908;2022-12-29T03:18:10;34.53;;;19.42;;
45792;SDS011;31495;42.740;22.908;2022-12-29T03:19:21;40.63;;;21.85;;
45792;SDS011;31495;42.740;22.908;2022-12-29T03:21:05;40.33;;;22.13;;
45792;SDS011;31495;42.740;22.908;2022-12-29T03:22:09;41.10;;;20.00;;
45792;SDS011;31495;42.740;22.908;2022-12-29T03:23:29;46.10;;;22.77;;
45792;SDS011;31495;42.740;22.908;2022-12-29T03:24:32;50.15;;;23.63;;
45792;SDS011;31495;42.740;22.908;2022-12-29T03:25:37;49.10;;;24.63;;
45792;SDS011;31495;42.740;22.908;2022-12-29T03:26:41;53.88;;;26.27;;
45792;SDS011;31495;42.740;22.908;2022-12-29T03:27:46;56.38;;;27.20;;
45792;SDS011;31495;42.740;22.908;2022-12-29T03:28:52;58.22;;;28.20;;
45792;SDS011;31495;42.740;22.908;2022-12-29T03:29:57;49.38;;;24.70;;
45792;SDS011;31495;42.740;22.908;2022-12-29T03:30:59;45.42;;;24.48;;
45792;SDS011;31495;42.740;22.908;2022-12-29T03:32:00;50.08;;;26.70;;
45792;SDS011;31495;42.740;22.908;2022-12-29T03:33:03;47.15;;;24.88;;
45792;SDS011;31495;42.740;22.908;2022-12-29T03:34:05;52.42;;;25.05;;
45792;SDS011;31495;42.740;22.908;2022-12-29T03:35:06;52.92;;;25.48;;
45792;SDS011;31495;42.740;22.908;2022-12-29T03:36:11;46.78;;;23.27;;
45792;SDS011;31495;42.740;22.908;2022-12-29T03:37:18;49.58;;;25.55;;
45792;SDS011;31495;42.740;22.908;2022-12-29T03:38:24;47.08;;;24.77;;
45792;SDS011;31495;42.740;22.908;2022-12-29T03:39:30;53.20;;;26.77;;
45792;SDS011;31495;42.740;22.908;2022-12-29T03:40:30;58.72;;;27.25;;
45792;SDS011;31495;42.740;22.908;2022-12-29T03:41:33;57.65;;;28.98;;
45792;SDS011;31495;42.740;22.908;2022-12-29T03:42:35;59.35;;;28.40;;
45792;SDS011;31495;42.740;22.908;2022-12-29T03:43:36;60.13;;;29.42;;
45792;SDS011;31495;42.740;22.908;2022-12-29T03:44:37;53.17;;;26.42;;
45792;SDS011;31495;42.740;22.908;2022-12-29T03:45:40;47.15;;;25.88;;
45792;SDS011;31495;42.740;22.908;2022-12-29T03:46:40;50.65;;;26.95;;
45792;SDS011;31495;42.740;22.908;2022-12-29T03:47:39;51.22;;;28.05;;
45792;SDS011;31495;42.740;22.908;2022-12-29T03:48:39;52.80;;;26.92;;
45792;SDS011;31495;42.740;22.908;2022-12-29T03:49:38;59.58;;;29.27;;
45792;SDS011;31495;42.740;22.908;2022-12-29T03:50:38;54.92;;;28.27;;
45792;SDS011;31495;42.740;22.908;2022-12-29T03:51:38;60.78;;;29.38;;
45792;SDS011;31495;42.740;22.908;2022-12-29T03:52:37;66.35;;;31.65;;
45792;SDS011;31495;42.740;22.908;2022-12-29T03:53:36;65.50;;;31.58;;
45792;SDS011;31495;42.740;22.908;2022-12-29T03:54:36;71.80;;;33.42;;
45792;SDS011;31495;42.740;22.908;2022-12-29T03:55:35;62.97;;;30.85;;
45792;SDS011;31495;42.740;22.908;2022-12-29T03:56:35;62.70;;;31.80;;
45792;SDS011;31495;42.740;22.908;2022-12-29T03:57:34;63.80;;;30.98;;
45792;SDS011;31495;42.740;22.908;2022-12-29T03:58:34;63.00;;;30.95;;
45792;SDS011;31495;42.740;22.908;2022-12-29T03:59:33;59.67;;;30.05;;
45792;SDS011;31495;42.740;22.908;2022-12-29T04:00:33;57.85;;;29.58;;
45792;SDS011;31495;42.740;22.908;2022-12-29T04:01:32;65.88;;;31.77;;
45792;SDS011;31495;42.740;22.908;2022-12-29T04:02:32;71.47;;;33.97;;
45792;SDS011;31495;42.740;22.908;2022-12-29T04:03:31;69.53;;;34.47;;
45792;SDS011;31495;42.740;22.908;2022-12-29T04:04:30;71.10;;;35.58;;
45792;SDS011;31495;42.740;22.908;2022-12-29T04:05:30;59.95;;;29.00;;
45792;SDS011;31495;42.740;22.908;2022-12-29T04:06:30;63.63;;;28.70;;
45792;SDS011;31495;42.740;22.908;2022-12-29T04:07:30;49.88;;;24.13;;
45792;SDS011;31495;42.740;22.908;2022-12-29T04:08:29;54.38;;;25.40;;
45792;SDS011;31495;42.740;22.908;2022-12-29T04:09:29;65.53;;;27.67;;
45792;SDS011;31495;42.740;22.908;2022-12-29T04:10:30;58.90;;;26.58;;
45792;SDS011;31495;42.740;22.908;2022-12-29T04:11:29;52.95;;;24.90;;
45792;SDS011;31495;42.740;22.908;2022-12-29T04:12:28;42.13;;;21.80;;
45792;SDS011;31495;42.740;22.908;2022-12-29T04:13:28;48.13;;;21.42;;
45792;SDS011;31495;42.740;22.908;2022-12-29T04:14:28;50.13;;;24.40;;
45792;SDS011;31495;42.740;22.908;2022-12-29T04:15:27;46.78;;;20.35;;
45792;SDS011;31495;42.740;22.908;2022-12-29T04:16:27;42.22;;;22.92;;
45792;SDS011;31495;42.740;22.908;2022-12-29T04:17:26;46.78;;;20.65;;
45792;SDS011;31495;42.740;22.908;2022-12-29T04:18:26;40.97;;;19.90;;
45792;SDS011;31495;42.740;22.908;2022-12-29T04:19:26;40.97;;;18.50;;
45792;SDS011;31495;42.740;22.908;2022-12-29T04:20:25;29.27;;;16.13;;
45792;SDS011;31495;42.740;22.908;2022-12-29T04:21:43;35.08;;;17.15;;
45792;SDS011;31495;42.740;22.908;2022-12-29T04:22:43;31.70;;;15.85;;
45792;SDS011;31495;42.740;22.908;2022-12-29T04:23:42;32.33;;;14.77;;
45792;SDS011;31495;42.740;22.908;2022-12-29T04:24:42;33.70;;;15.85;;
45792;SDS011;31495;42.740;22.908;2022-12-29T04:25:44;24.98;;;13.23;;
45792;SDS011;31495;42.740;22.908;2022-12-29T04:26:45;31.27;;;16.77;;
45792;SDS011;31495;42.740;22.908;2022-12-29T04:27:44;30.63;;;16.30;;
45792;SDS011;31495;42.740;22.908;2022-12-29T04:28:44;38.30;;;18.25;;
45792;SDS011;31495;42.740;22.908;2022-12-29T04:29:43;36.45;;;17.92;;
45792;SDS011;31495;42.740;22.908;2022-12-29T04:30:43;35.63;;;18.45;;
45792;SDS011;31495;42.740;22.908;2022-12-29T04:31:43;26.17;;;15.05;;
45792;SDS011;31495;42.740;22.908;2022-12-29T04:32:42;31.55;;;16.75;;
45792;SDS011;31495;42.740;22.908;2022-12-29T04:33:41;35.95;;;17.25;;
45792;SDS011;31495;42.740;22.908;2022-12-29T04:34:41;34.67;;;17.58;;
45792;SDS011;31495;42.740;22.908;2022-12-29T04:35:41;35.08;;;19.17;;
45792;SDS011;31495;42.740;22.908;2022-12-29T04:36:42;38.10;;;19.98;;
45792;SDS011;31495;42.740;22.908;2022-12-29T04:37:41;32.03;;;18.45;;
45792;SDS011;31495;42.740;22.908;2022-12-29T04:38:41;33.55;;;19.05;;
45792;SDS011;31495;42.740;22.908;2022-12-29T04:39:40;37.60;;;18.98;;
45792;SDS011;31495;42.740;22.908;2022-12-29T04:40:40;35.58;;;18.73;;
45792;SDS011;31495;42.740;22.908;2022-12-29T04:41:41;44.53;;;22.05;;
45792;SDS011;31495;42.740;22.908;2022-12-29T04:42:40;36.53;;;20.52;;
45792;SDS011;31495;42.740;22.908;2022-12-29T04:43:40;41.67;;;20.83;;
45792;SDS011;31495;42.740;22.908;2022-12-29T04:44:39;42.85;;;20.73;;
45792;SDS011;31495;42.740;22.908;2022-12-29T04:45:42;47.08;;;21.13;;
45792;SDS011;31495;42.740;22.908;2022-12-29T04:46:43;43.88;;;21.50;;
45792;SDS011;31495;42.740;22.908;2022-12-29T04:47:43;82.30;;;28.23;;
45792;SDS011;31495;42.740;22.908;2022-12-29T04:48:43;65.20;;;27.65;;
45792;SDS011;31495;42.740;22.908;2022-12-29T04:49:42;43.50;;;21.63;;
45792;SDS011;31495;42.740;22.908;2022-12-29T04:50:42;42.95;;;21.17;;
45792;SDS011;31495;42.740;22.908;2022-12-29T04:51:41;48.78;;;20.98;;
45792;SDS011;31495;42.740;22.908;2022-12-29T04:52:41;49.55;;;21.10;;
45792;SDS011;31495;42.740;22.908;2022-12-29T04:53:40;39.00;;;21.42;;
45792;SDS011;31495;42.740;22.908;2022-12-29T04:54:40;51.80;;;21.60;;
45792;SDS011;31495;42.740;22.908;2022-12-29T04:55:39;41.92;;;20.77;;
45792;SDS011;31495;42.740;22.908;2022-12-29T04:56:39;34.13;;;18.02;;
45792;SDS011;31495;42.740;22.908;2022-12-29T04:57:38;38.53;;;19.10;;
45792;SDS011;31495;42.740;22.908;2022-12-29T04:58:38;34.75;;;18.75;;
45792;SDS011;31495;42.740;22.908;2022-12-29T04:59:37;37.42;;;19.55;;
45792;SDS011;31495;42.740;22.908;2022-12-29T05:00:36;43.85;;;20.10;;
45792;SDS011;31495;42.740;22.908;2022-12-29T05:01:36;47.60;;;20.48;;
45792;SDS011;31495;42.740;22.908;2022-12-29T05:02:36;40.45;;;19.48;;
45792;SDS011;31495;42.740;22.908;2022-12-29T05:03:38;49.72;;;22.77;;
45792;SDS011;31495;42.740;22.908;2022-12-29T05:04:38;52.47;;;21.90;;
45792;SDS011;31495;42.740;22.908;2022-12-29T05:05:37;70.03;;;25.10;;
45792;SDS011;31495;42.740;22.908;2022-12-29T05:06:40;59.67;;;24.30;;
45792;SDS011;31495;42.740;22.908;2022-12-29T05:07:39;48.88;;;22.55;;
45792;SDS011;31495;42.740;22.908;2022-12-29T05:08:40;49.78;;;23.15;;
45792;SDS011;31495;42.740;22.908;2022-12-29T05:09:39;48.38;;;22.27;;
45792;SDS011;31495;42.740;22.908;2022-12-29T05:10:39;57.85;;;23.65;;
45792;SDS011;31495;42.740;22.908;2022-12-29T05:11:38;49.75;;;25.25;;
45792;SDS011;31495;42.740;22.908;2022-12-29T05:12:38;63.65;;;28.60;;
45792;SDS011;31495;42.740;22.908;2022-12-29T05:13:37;60.45;;;28.85;;
45792;SDS011;31495;42.740;22.908;2022-12-29T05:14:37;54.83;;;26.42;;
45792;SDS011;31495;42.740;22.908;2022-12-29T05:15:36;60.85;;;29.00;;
45792;SDS011;31495;42.740;22.908;2022-12-29T05:16:36;75.10;;;33.15;;
45792;SDS011;31495;42.740;22.908;2022-12-29T05:19:13;55.40;;;26.45;;
45792;SDS011;31495;42.740;22.908;2022-12-29T05:20:16;53.20;;;27.90;;
45792;SDS011;31495;42.740;22.908;2022-12-29T05:21:15;49.72;;;23.83;;
45792;SDS011;31495;42.740;22.908;2022-12-29T05:22:15;43.55;;;22.08;;
45792;SDS011;31495;42.740;22.908;2022-12-29T05:23:14;44.53;;;20.73;;
45792;SDS011;31495;42.740;22.908;2022-12-29T05:24:14;48.70;;;24.02;;
45792;SDS011;31495;42.740;22.908;2022-12-29T05:25:14;49.97;;;23.20;;
45792;SDS011;31495;42.740;22.908;2022-12-29T05:26:13;47.22;;;22.27;;
45792;SDS011;31495;42.740;22.908;2022-12-29T05:27:13;45.00;;;24.30;;
45792;SDS011;31495;42.740;22.908;2022-12-29T05:28:13;44.65;;;26.73;;
45792;SDS011;31495;42.740;22.908;2022-12-29T05:29:12;50.35;;;27.73;;
45792;SDS011;31495;42.740;22.908;2022-12-29T05:30:12;48.05;;;26.80;;
45792;SDS011;31495;42.740;22.908;2022-12-29T05:31:11;43.92;;;24.05;;
45792;SDS011;31495;42.740;22.908;2022-12-29T05:32:11;38.15;;;22.52;;
45792;SDS011;31495;42.740;22.908;2022-12-29T05:33:10;51.08;;;27.15;;
45792;SDS011;31495;42.740;22.908;2022-12-29T05:34:11;55.50;;;28.42;;
45792;SDS011;31495;42.740;22.908;2022-12-29T05:35:11;62.45;;;27.88;;
45792;SDS011;31495;42.740;22.908;2022-12-29T05:36:10;58.40;;;29.70;;
45792;SDS011;31495;42.740;22.908;2022-12-29T05:37:10;62.40;;;30.10;;
45792;SDS011;31495;42.740;22.908;2022-12-29T05:38:10;57.40;;;30.27;;
45792;SDS011;31495;42.740;22.908;2022-12-29T05:39:09;59.00;;;29.80;;
45792;SDS011;31495;42.740;22.908;2022-12-29T05:40:09;58.75;;;28.92;;
45792;SDS011;31495;42.740;22.908;2022-12-29T05:41:09;50.00;;;26.75;;
45792;SDS011;31495;42.740;22.908;2022-12-29T05:42:09;58.72;;;29.67;;
45792;SDS011;31495;42.740;22.908;2022-12-29T05:43:08;55.92;;;30.45;;
45792;SDS011;31495;42.740;22.908;2022-12-29T05:44:09;57.80;;;31.02;;
45792;SDS011;31495;42.740;22.908;2022-12-29T05:45:09;59.42;;;29.95;;
45792;SDS011;31495;42.740;22.908;2022-12-29T05:46:09;61.03;;;30.80;;
45792;SDS011;31495;42.740;22.908;2022-12-29T05:47:09;54.83;;;28.08;;
45792;SDS011;31495;42.740;22.908;2022-12-29T05:48:08;56.10;;;28.85;;
45792;SDS011;31495;42.740;22.908;2022-12-29T05:49:08;67.07;;;30.40;;
45792;SDS011;31495;42.740;22.908;2022-12-29T05:50:07;59.80;;;29.73;;
45792;SDS011;31495;42.740;22.908;2022-12-29T05:51:07;66.93;;;30.90;;
45792;SDS011;31495;42.740;22.908;2022-12-29T05:53:44;63.67;;;32.30;;
45792;SDS011;31495;42.740;22.908;2022-12-29T05:54:43;71.28;;;33.70;;
45792;SDS011;31495;42.740;22.908;2022-12-29T05:55:43;57.80;;;32.60;;
45792;SDS011;31495;42.740;22.908;2022-12-29T05:56:43;59.10;;;29.05;;
45792;SDS011;31495;42.740;22.908;2022-12-29T05:57:43;49.08;;;25.73;;
45792;SDS011;31495;42.740;22.908;2022-12-29T05:58:42;44.65;;;24.25;;
45792;SDS011;31495;42.740;22.908;2022-12-29T05:59:42;46.35;;;23.80;;
45792;SDS011;31495;42.740;22.908;2022-12-29T06:00:42;43.88;;;22.88;;
45792;SDS011;31495;42.740;22.908;2022-12-29T06:01:41;51.67;;;23.60;;
45792;SDS011;31495;42.740;22.908;2022-12-29T06:02:41;70.32;;;29.27;;
45792;SDS011;31495;42.740;22.908;2022-12-29T06:03:41;98.05;;;39.08;;
45792;SDS011;31495;42.740;22.908;2022-12-29T06:04:41;108.07;;;41.70;;
45792;SDS011;31495;42.740;22.908;2022-12-29T06:05:40;90.82;;;40.03;;
45792;SDS011;31495;42.740;22.908;2022-12-29T06:06:40;88.38;;;37.55;;
45792;SDS011;31495;42.740;22.908;2022-12-29T06:07:39;83.90;;;34.80;;
45792;SDS011;31495;42.740;22.908;2022-12-29T06:08:39;88.38;;;35.72;;
45792;SDS011;31495;42.740;22.908;2022-12-29T06:09:38;72.05;;;33.10;;
45792;SDS011;31495;42.740;22.908;2022-12-29T06:10:38;84.35;;;35.60;;
45792;SDS011;31495;42.740;22.908;2022-12-29T06:11:37;76.43;;;34.20;;
45792;SDS011;31495;42.740;22.908;2022-12-29T06:12:37;75.03;;;33.10;;
45792;SDS011;31495;42.740;22.908;2022-12-29T06:13:36;79.30;;;34.90;;
45792;SDS011;31495;42.740;22.908;2022-12-29T06:14:35;86.25;;;39.05;;
45792;SDS011;31495;42.740;22.908;2022-12-29T06:15:35;83.07;;;42.47;;
45792;SDS011;31495;42.740;22.908;2022-12-29T06:16:35;80.60;;;40.78;;
45792;SDS011;31495;42.740;22.908;2022-12-29T06:17:35;85.55;;;40.67;;
45792;SDS011;31495;42.740;22.908;2022-12-29T06:18:34;73.40;;;36.53;;
45792;SDS011;31495;42.740;22.908;2022-12-29T06:19:33;74.82;;;38.55;;
45792;SDS011;31495;42.740;22.908;2022-12-29T06:20:33;72.38;;;37.45;;
45792;SDS011;31495;42.740;22.908;2022-12-29T06:21:33;72.35;;;34.25;;
45792;SDS011;31495;42.740;22.908;2022-12-29T06:22:32;68.18;;;31.85;;
45792;SDS011;31495;42.740;22.908;2022-12-29T06:23:32;63.38;;;31.15;;
45792;SDS011;31495;42.740;22.908;2022-12-29T06:24:32;63.28;;;30.60;;
45792;SDS011;31495;42.740;22.908;2022-12-29T06:25:31;62.00;;;31.85;;
45792;SDS011;31495;42.740;22.908;2022-12-29T06:26:32;61.70;;;31.67;;
45792;SDS011;31495;42.740;22.908;2022-12-29T06:27:32;68.47;;;33.28;;
45792;SDS011;31495;42.740;22.908;2022-12-29T06:28:31;64.35;;;31.38;;
45792;SDS011;31495;42.740;22.908;2022-12-29T06:29:31;63.65;;;31.30;;
45792;SDS011;31495;42.740;22.908;2022-12-29T06:30:31;57.80;;;28.77;;
45792;SDS011;31495;42.740;22.908;2022-12-29T06:31:31;60.85;;;30.63;;
45792;SDS011;31495;42.740;22.908;2022-12-29T06:32:30;56.30;;;29.80;;
45792;SDS011;31495;42.740;22.908;2022-12-29T06:33:30;52.47;;;29.35;;
45792;SDS011;31495;42.740;22.908;2022-12-29T06:34:30;63.22;;;30.58;;
45792;SDS011;31495;42.740;22.908;2022-12-29T06:35:29;53.85;;;29.05;;
45792;SDS011;31495;42.740;22.908;2022-12-29T06:36:29;62.22;;;31.25;;
45792;SDS011;31495;42.740;22.908;2022-12-29T06:37:28;62.10;;;32.35;;
45792;SDS011;31495;42.740;22.908;2022-12-29T06:38:28;65.75;;;30.45;;
45792;SDS011;31495;42.740;22.908;2022-12-29T06:39:28;61.58;;;32.28;;
45792;SDS011;31495;42.740;22.908;2022-12-29T06:40:28;65.32;;;30.98;;
45792;SDS011;31495;42.740;22.908;2022-12-29T06:41:27;66.72;;;32.45;;